sensor_id;sensor_type;location;lat;lon;timestamp;pressure;altitude;pressure_sealevel;temperature;humidity
43711;BME280;29309;42.682;23.372;2022-11-21T00:00:15;93917.03;;;10.11;100.00
43711;BME280;29309;42.682;23.372;2022-11-21T00:02:43;93910.91;;;10.14;100.00
43711;BME280;29309;42.682;23.372;2022-11-21T00:05:09;93911.75;;;10.19;100.00
43711;BME280;29309;42.682;23.372;2022-11-21T00:07:34;93917.34;;;10.21;100.00
43711;BME280;29309;42.682;23.372;2022-11-21T00:10:00;93904.97;;;10.24;100.00
43711;BME280;29309;42.682;23.372;2022-11-21T00:12:25;93894.69;;;10.28;100.00
43711;BME280;29309;42.682;23.372;2022-11-21T00:14:51;93892.63;;;10.29;100.00
43711;BME280;29309;42.682;23.372;2022-11-21T00:17:16;93881.25;;;10.43;100.00
43711;BME280;29309;42.682;23.372;2022-11-21T00:19:42;93868.19;;;10.47;100.00
43711;BME280;29309;42.682;23.372;2022-11-21T00:22:07;93879.94;;;10.46;100.00
43711;BME280;29309;42.682;23.372;2022-11-21T00:24:33;93880.78;;;10.50;100.00
43711;BME280;29309;42.682;23.372;2022-11-21T00:26:58;93851.69;;;10.51;100.00
43711;BME280;29309;42.682;23.372;2022-11-21T00:29:23;93844.09;;;10.54;100.00
43711;BME280;29309;42.682;23.372;2022-11-21T00:31:49;93842.75;;;10.55;100.00
43711;BME280;29309;42.682;23.372;2022-11-21T00:34:14;93840.09;;;10.59;100.00
43711;BME280;29309;42.682;23.372;2022-11-21T00:36:40;93824.88;;;10.60;100.00
43711;BME280;29309;42.682;23.372;2022-11-21T00:39:06;93823.50;;;10.61;100.00
43711;BME280;29309;42.682;23.372;2022-11-21T00:41:32;93827.09;;;10.65;100.00
43711;BME280;29309;42.682;23.372;2022-11-21T00:43:57;93802.88;;;10.68;100.00
43711;BME280;29309;42.682;23.372;2022-11-21T00:46:23;93827.19;;;10.69;100.00
43711;BME280;29309;42.682;23.372;2022-11-21T00:48:48;93843.25;;;10.73;100.00
43711;BME280;29309;42.682;23.372;2022-11-21T00:51:14;93863.44;;;10.75;100.00
43711;BME280;29309;42.682;23.372;2022-11-21T00:53:39;93853.88;;;10.80;100.00
43711;BME280;29309;42.682;23.372;2022-11-21T00:56:05;93818.00;;;10.89;100.00
43711;BME280;29309;42.682;23.372;2022-11-21T00:58:30;93843.75;;;10.91;100.00
43711;BME280;29309;42.682;23.372;2022-11-21T01:01:13;93835.53;;;10.95;100.00
43711;BME280;29309;42.682;23.372;2022-11-21T01:03:39;93849.22;;;10.89;100.00
43711;BME280;29309;42.682;23.372;2022-11-21T01:06:10;93836.06;;;10.90;100.00
43711;BME280;29309;42.682;23.372;2022-11-21T01:08:39;93823.59;;;10.91;100.00
43711;BME280;29309;42.682;23.372;2022-11-21T01:11:06;93817.91;;;10.84;100.00
43711;BME280;29309;42.682;23.372;2022-11-21T01:13:33;93817.06;;;10.80;100.00
43711;BME280;29309;42.682;23.372;2022-11-21T01:16:16;93805.31;;;10.81;100.00
43711;BME280;29309;42.682;23.372;2022-11-21T01:18:42;93804.66;;;10.83;100.00
43711;BME280;29309;42.682;23.372;2022-11-21T01:21:22;93798.47;;;10.84;99.64
43711;BME280;29309;42.682;23.372;2022-11-21T01:23:48;93828.22;;;10.82;99.66
43711;BME280;29309;42.682;23.372;2022-11-21T01:26:19;93828.28;;;10.84;100.00
43711;BME280;29309;42.682;23.372;2022-11-21T01:28:45;93813.19;;;10.91;100.00
43711;BME280;29309;42.682;23.372;2022-11-21T01:31:13;93824.16;;;10.85;100.00
43711;BME280;29309;42.682;23.372;2022-11-21T01:33:39;93783.81;;;10.82;100.00
43711;BME280;29309;42.682;23.372;2022-11-21T01:36:12;93788.56;;;10.77;100.00
43711;BME280;29309;42.682;23.372;2022-11-21T01:38:39;93797.56;;;10.78;100.00
43711;BME280;29309;42.682;23.372;2022-11-21T01:41:06;93781.19;;;10.88;100.00
43711;BME280;29309;42.682;23.372;2022-11-21T01:43:32;93790.78;;;10.83;100.00
43711;BME280;29309;42.682;23.372;2022-11-21T01:46:00;93801.84;;;10.81;100.00
43711;BME280;29309;42.682;23.372;2022-11-21T01:53:46;93790.84;;;10.85;100.00
43711;BME280;29309;42.682;23.372;2022-11-21T01:56:13;93792.25;;;10.86;98.32
43711;BME280;29309;42.682;23.372;2022-11-21T01:58:39;93774.25;;;10.89;98.31
43711;BME280;29309;42.682;23.372;2022-11-21T02:01:06;93773.63;;;10.91;98.71
43711;BME280;29309;42.682;23.372;2022-11-21T02:03:33;93804.81;;;10.89;99.05
43711;BME280;29309;42.682;23.372;2022-11-21T02:06:03;93797.84;;;10.88;99.37
43711;BME280;29309;42.682;23.372;2022-11-21T02:08:30;93796.44;;;10.87;99.97
43711;BME280;29309;42.682;23.372;2022-11-21T02:11:15;93813.69;;;10.83;99.95
43711;BME280;29309;42.682;23.372;2022-11-21T02:13:42;93803.19;;;10.80;100.00
43711;BME280;29309;42.682;23.372;2022-11-21T02:16:07;93824.09;;;10.83;100.00
43711;BME280;29309;42.682;23.372;2022-11-21T02:18:33;93831.88;;;10.89;100.00
43711;BME280;29309;42.682;23.372;2022-11-21T02:23:45;93793.66;;;10.87;100.00
43711;BME280;29309;42.682;23.372;2022-11-21T02:26:12;93818.44;;;10.79;100.00
43711;BME280;29309;42.682;23.372;2022-11-21T02:28:38;93821.28;;;10.81;100.00
43711;BME280;29309;42.682;23.372;2022-11-21T02:31:04;93801.78;;;10.79;100.00
43711;BME280;29309;42.682;23.372;2022-11-21T02:33:29;93843.28;;;10.75;100.00
43711;BME280;29309;42.682;23.372;2022-11-21T02:35:59;93835.63;;;10.73;100.00
43711;BME280;29309;42.682;23.372;2022-11-21T02:38:34;93812.94;;;10.81;100.00
43711;BME280;29309;42.682;23.372;2022-11-21T02:43:41;93800.94;;;10.74;100.00
43711;BME280;29309;42.682;23.372;2022-11-21T02:46:08;93791.16;;;10.71;100.00
43711;BME280;29309;42.682;23.372;2022-11-21T02:48:36;93785.59;;;10.71;100.00
43711;BME280;29309;42.682;23.372;2022-11-21T02:51:01;93754.38;;;10.71;100.00
43711;BME280;29309;42.682;23.372;2022-11-21T02:53:27;93764.81;;;10.72;99.25
43711;BME280;29309;42.682;23.372;2022-11-21T02:55:52;93756.03;;;10.82;98.49
43711;BME280;29309;42.682;23.372;2022-11-21T02:58:18;93761.66;;;10.84;96.82
43711;BME280;29309;42.682;23.372;2022-11-21T03:00:44;93739.44;;;10.84;97.52
43711;BME280;29309;42.682;23.372;2022-11-21T03:03:09;93715.97;;;10.89;98.08
43711;BME280;29309;42.682;23.372;2022-11-21T03:05:36;93723.00;;;10.92;98.57
43711;BME280;29309;42.682;23.372;2022-11-21T03:08:02;93723.75;;;10.95;96.33
43711;BME280;29309;42.682;23.372;2022-11-21T03:10:28;93732.31;;;11.05;92.21
43711;BME280;29309;42.682;23.372;2022-11-21T03:12:54;93737.47;;;11.16;93.58
43711;BME280;29309;42.682;23.372;2022-11-21T03:15:25;93742.22;;;11.12;94.27
43711;BME280;29309;42.682;23.372;2022-11-21T03:17:51;93746.41;;;11.13;95.38
43711;BME280;29309;42.682;23.372;2022-11-21T03:20:17;93735.94;;;11.11;95.88
43711;BME280;29309;42.682;23.372;2022-11-21T03:22:42;93738.69;;;11.09;96.49
43711;BME280;29309;42.682;23.372;2022-11-21T03:25:08;93756.09;;;11.12;96.40
43711;BME280;29309;42.682;23.372;2022-11-21T03:27:33;93748.38;;;11.08;96.01
43711;BME280;29309;42.682;23.372;2022-11-21T03:29:59;93749.81;;;11.11;95.87
43711;BME280;29309;42.682;23.372;2022-11-21T03:32:24;93750.59;;;11.14;96.20
43711;BME280;29309;42.682;23.372;2022-11-21T03:34:49;93750.59;;;11.14;96.33
43711;BME280;29309;42.682;23.372;2022-11-21T03:37:15;93756.94;;;11.18;96.45
43711;BME280;29309;42.682;23.372;2022-11-21T03:39:41;93756.94;;;11.18;97.24
43711;BME280;29309;42.682;23.372;2022-11-21T03:42:06;93756.94;;;11.18;97.07
43711;BME280;29309;42.682;23.372;2022-11-21T03:44:32;93748.72;;;11.22;97.62
43711;BME280;29309;42.682;23.372;2022-11-21T03:46:57;93736.28;;;11.25;97.81
43711;BME280;29309;42.682;23.372;2022-11-21T03:49:23;93728.66;;;11.26;97.48
43711;BME280;29309;42.682;23.372;2022-11-21T03:51:48;93743.88;;;11.23;96.61
43711;BME280;29309;42.682;23.372;2022-11-21T03:54:14;93752.81;;;11.19;96.60
43711;BME280;29309;42.682;23.372;2022-11-21T03:56:39;93757.72;;;11.21;96.31
43711;BME280;29309;42.682;23.372;2022-11-21T03:59:05;93750.22;;;11.27;96.22
43711;BME280;29309;42.682;23.372;2022-11-21T04:01:31;93741.19;;;11.27;95.57
43711;BME280;29309;42.682;23.372;2022-11-21T04:03:57;93731.28;;;11.20;95.79
43711;BME280;29309;42.682;23.372;2022-11-21T04:06:23;93725.94;;;11.28;96.42
43711;BME280;29309;42.682;23.372;2022-11-21T04:08:49;93723.72;;;11.22;96.05
43711;BME280;29309;42.682;23.372;2022-11-21T04:11:15;93721.66;;;11.23;96.37
43711;BME280;29309;42.682;23.372;2022-11-21T04:13:41;93727.84;;;11.21;96.60
43711;BME280;29309;42.682;23.372;2022-11-21T04:16:07;93734.16;;;11.24;97.33
43711;BME280;29309;42.682;23.372;2022-11-21T04:18:33;93709.28;;;11.28;96.64
43711;BME280;29309;42.682;23.372;2022-11-21T04:21:01;93700.22;;;11.27;95.68
43711;BME280;29309;42.682;23.372;2022-11-21T04:23:27;93702.31;;;11.29;95.76
43711;BME280;29309;42.682;23.372;2022-11-21T04:25:53;93712.03;;;11.28;95.67
43711;BME280;29309;42.682;23.372;2022-11-21T04:28:19;93722.56;;;11.33;95.52
43711;BME280;29309;42.682;23.372;2022-11-21T04:30:45;93726.72;;;11.32;95.22
43711;BME280;29309;42.682;23.372;2022-11-21T04:33:12;93722.56;;;11.33;94.68
43711;BME280;29309;42.682;23.372;2022-11-21T04:35:38;93735.13;;;11.34;94.41
43711;BME280;29309;42.682;23.372;2022-11-21T04:38:04;93761.47;;;11.33;93.37
43711;BME280;29309;42.682;23.372;2022-11-21T04:40:29;93763.69;;;11.39;92.62
43711;BME280;29309;42.682;23.372;2022-11-21T04:42:54;93734.00;;;11.48;91.52
43711;BME280;29309;42.682;23.372;2022-11-21T04:45:20;93730.53;;;11.47;91.07
43711;BME280;29309;42.682;23.372;2022-11-21T04:47:45;93752.59;;;11.39;91.95
43711;BME280;29309;42.682;23.372;2022-11-21T04:50:13;93785.13;;;11.34;92.20
43711;BME280;29309;42.682;23.372;2022-11-21T04:52:40;93773.88;;;11.28;92.33
43711;BME280;29309;42.682;23.372;2022-11-21T04:55:07;93761.13;;;11.19;91.82
43711;BME280;29309;42.682;23.372;2022-11-21T04:57:33;93757.28;;;11.03;91.62
43711;BME280;29309;42.682;23.372;2022-11-21T04:59:58;93753.47;;;10.90;91.97
43711;BME280;29309;42.682;23.372;2022-11-21T05:02:24;93756.75;;;10.82;91.67
43711;BME280;29309;42.682;23.372;2022-11-21T05:04:50;93772.50;;;10.74;91.84
43711;BME280;29309;42.682;23.372;2022-11-21T05:07:15;93781.31;;;10.66;91.82
43711;BME280;29309;42.682;23.372;2022-11-21T05:09:41;93788.00;;;10.57;91.62
43711;BME280;29309;42.682;23.372;2022-11-21T05:12:08;93780.94;;;10.52;92.15
43711;BME280;29309;42.682;23.372;2022-11-21T05:14:54;93784.25;;;10.47;92.58
43711;BME280;29309;42.682;23.372;2022-11-21T05:17:20;93790.19;;;10.35;92.23
43711;BME280;29309;42.682;23.372;2022-11-21T05:19:45;93802.53;;;10.30;92.79
43711;BME280;29309;42.682;23.372;2022-11-21T05:22:11;93808.78;;;10.30;92.68
43711;BME280;29309;42.682;23.372;2022-11-21T05:24:36;93801.13;;;10.29;92.32
43711;BME280;29309;42.682;23.372;2022-11-21T05:27:02;93786.53;;;10.28;92.66
43711;BME280;29309;42.682;23.372;2022-11-21T05:29:27;93799.66;;;10.26;92.63
43711;BME280;29309;42.682;23.372;2022-11-21T05:31:53;93809.97;;;10.23;93.44
43711;BME280;29309;42.682;23.372;2022-11-21T05:34:18;93807.88;;;10.24;93.14
43711;BME280;29309;42.682;23.372;2022-11-21T05:36:44;93808.59;;;10.24;93.56
43711;BME280;29309;42.682;23.372;2022-11-21T05:39:09;93798.34;;;10.29;93.26
43711;BME280;29309;42.682;23.372;2022-11-21T05:41:35;93801.75;;;10.27;93.08
43711;BME280;29309;42.682;23.372;2022-11-21T05:44:00;93810.78;;;10.28;92.47
43711;BME280;29309;42.682;23.372;2022-11-21T05:46:26;93819.06;;;10.26;92.19
43711;BME280;29309;42.682;23.372;2022-11-21T05:48:53;93844.44;;;10.16;89.70
43711;BME280;29309;42.682;23.372;2022-11-21T05:51:19;93872.50;;;10.05;89.13
43711;BME280;29309;42.682;23.372;2022-11-21T05:53:46;93872.41;;;10.03;89.90
43711;BME280;29309;42.682;23.372;2022-11-21T05:56:13;93834.44;;;10.07;90.06
43711;BME280;29309;42.682;23.372;2022-11-21T05:58:39;93852.41;;;10.06;89.77
43711;BME280;29309;42.682;23.372;2022-11-21T06:01:07;93867.69;;;10.07;89.25
43711;BME280;29309;42.682;23.372;2022-11-21T06:03:35;93869.31;;;10.14;88.62
43711;BME280;29309;42.682;23.372;2022-11-21T06:06:09;93873.78;;;10.23;87.77
43711;BME280;29309;42.682;23.372;2022-11-21T06:08:42;93881.19;;;10.41;86.62
43711;BME280;29309;42.682;23.372;2022-11-21T06:11:14;93885.81;;;10.56;83.29
43711;BME280;29309;42.682;23.372;2022-11-21T06:13:40;93888.25;;;10.69;83.60
43711;BME280;29309;42.682;23.372;2022-11-21T06:16:08;93910.22;;;10.85;82.33
43711;BME280;29309;42.682;23.372;2022-11-21T06:18:38;93892.25;;;10.88;79.81
43711;BME280;29309;42.682;23.372;2022-11-21T06:21:11;93910.75;;;10.79;78.58
43711;BME280;29309;42.682;23.372;2022-11-21T06:23:37;93902.63;;;10.62;78.53
43711;BME280;29309;42.682;23.372;2022-11-21T06:26:04;93927.78;;;10.44;78.61
43711;BME280;29309;42.682;23.372;2022-11-21T06:28:35;93937.66;;;10.27;78.66
43711;BME280;29309;42.682;23.372;2022-11-21T06:31:05;93942.75;;;10.13;78.57
43711;BME280;29309;42.682;23.372;2022-11-21T06:33:32;93931.41;;;10.05;78.76
43711;BME280;29309;42.682;23.372;2022-11-21T06:36:01;93933.69;;;9.89;78.44
43711;BME280;29309;42.682;23.372;2022-11-21T06:38:27;93945.59;;;9.72;78.34
43711;BME280;29309;42.682;23.372;2022-11-21T06:40:52;93963.16;;;9.59;78.49
43711;BME280;29309;42.682;23.372;2022-11-21T06:43:17;93956.97;;;9.38;78.53
43711;BME280;29309;42.682;23.372;2022-11-21T06:45:43;93970.25;;;9.22;79.32
43711;BME280;29309;42.682;23.372;2022-11-21T06:48:08;93958.59;;;9.06;79.79
43711;BME280;29309;42.682;23.372;2022-11-21T06:50:34;93972.81;;;8.97;80.84
43711;BME280;29309;42.682;23.372;2022-11-21T06:52:59;93979.31;;;8.85;81.70
43711;BME280;29309;42.682;23.372;2022-11-21T06:55:25;93987.31;;;8.77;82.62
43711;BME280;29309;42.682;23.372;2022-11-21T06:58:00;94002.84;;;8.67;83.13
43711;BME280;29309;42.682;23.372;2022-11-21T07:00:26;94008.31;;;8.47;83.46
43711;BME280;29309;42.682;23.372;2022-11-21T07:03:01;94012.53;;;8.30;83.34
43711;BME280;29309;42.682;23.372;2022-11-21T07:05:27;94013.94;;;8.14;83.45
43711;BME280;29309;42.682;23.372;2022-11-21T07:08:00;94027.50;;;8.08;84.13
43711;BME280;29309;42.682;23.372;2022-11-21T07:10:26;94029.06;;;7.95;83.52
43711;BME280;29309;42.682;23.372;2022-11-21T07:12:58;94026.84;;;7.91;84.20
43711;BME280;29309;42.682;23.372;2022-11-21T07:15:44;94036.63;;;7.77;84.03
43711;BME280;29309;42.682;23.372;2022-11-21T07:18:13;94042.75;;;7.75;85.68
43711;BME280;29309;42.682;23.372;2022-11-21T07:20:39;94038.50;;;7.72;86.22
43711;BME280;29309;42.682;23.372;2022-11-21T07:23:06;94051.41;;;7.68;86.33
43711;BME280;29309;42.682;23.372;2022-11-21T07:25:32;94060.97;;;7.65;86.93
43711;BME280;29309;42.682;23.372;2022-11-21T07:27:58;94069.00;;;7.59;86.44
43711;BME280;29309;42.682;23.372;2022-11-21T07:30:24;94094.94;;;7.52;86.60
43711;BME280;29309;42.682;23.372;2022-11-21T07:32:57;94107.06;;;7.45;86.99
43711;BME280;29309;42.682;23.372;2022-11-21T07:35:22;94115.69;;;7.37;87.39
43711;BME280;29309;42.682;23.372;2022-11-21T07:37:48;94121.81;;;7.35;87.95
43711;BME280;29309;42.682;23.372;2022-11-21T07:40:13;94118.09;;;7.29;87.40
43711;BME280;29309;42.682;23.372;2022-11-21T07:42:39;94136.50;;;7.24;88.03
43711;BME280;29309;42.682;23.372;2022-11-21T07:45:05;94144.44;;;7.16;88.00
43711;BME280;29309;42.682;23.372;2022-11-21T07:47:30;94144.97;;;7.13;88.88
43711;BME280;29309;42.682;23.372;2022-11-21T07:49:57;94151.53;;;7.06;89.33
43711;BME280;29309;42.682;23.372;2022-11-21T07:52:23;94147.78;;;6.99;88.77
43711;BME280;29309;42.682;23.372;2022-11-21T07:54:49;94169.66;;;6.95;89.45
43711;BME280;29309;42.682;23.372;2022-11-21T07:57:14;94166.72;;;6.91;89.78
43711;BME280;29309;42.682;23.372;2022-11-21T07:59:40;94170.91;;;6.92;89.17
43711;BME280;29309;42.682;23.372;2022-11-21T08:02:05;94177.75;;;6.91;89.75
43711;BME280;29309;42.682;23.372;2022-11-21T08:04:31;94194.31;;;6.91;87.93
43711;BME280;29309;42.682;23.372;2022-11-21T08:06:56;94208.53;;;6.85;87.97
43711;BME280;29309;42.682;23.372;2022-11-21T08:09:22;94209.88;;;6.84;87.85
43711;BME280;29309;42.682;23.372;2022-11-21T08:11:51;94200.53;;;6.91;88.54
43711;BME280;29309;42.682;23.372;2022-11-21T08:14:16;94207.50;;;6.92;88.33
43711;BME280;29309;42.682;23.372;2022-11-21T08:16:42;94212.50;;;6.96;88.57
43711;BME280;29309;42.682;23.372;2022-11-21T08:19:07;94220.69;;;6.94;88.00
43711;BME280;29309;42.682;23.372;2022-11-21T08:21:33;94224.13;;;6.94;86.96
43711;BME280;29309;42.682;23.372;2022-11-21T08:23:58;94227.53;;;6.93;86.29
43711;BME280;29309;42.682;23.372;2022-11-21T08:26:24;94222.00;;;6.93;86.01
43711;BME280;29309;42.682;23.372;2022-11-21T08:28:49;94224.50;;;6.87;85.17
43711;BME280;29309;42.682;23.372;2022-11-21T08:31:14;94226.34;;;6.82;85.08
43711;BME280;29309;42.682;23.372;2022-11-21T08:33:40;94225.53;;;6.80;84.46
43711;BME280;29309;42.682;23.372;2022-11-21T08:36:06;94233.88;;;6.82;84.54
43711;BME280;29309;42.682;23.372;2022-11-21T08:38:32;94241.56;;;6.83;84.94
43711;BME280;29309;42.682;23.372;2022-11-21T08:40:58;94236.94;;;6.88;84.80
43711;BME280;29309;42.682;23.372;2022-11-21T08:43:42;94240.00;;;6.94;85.51
43711;BME280;29309;42.682;23.372;2022-11-21T08:46:08;94235.16;;;6.94;84.37
43711;BME280;29309;42.682;23.372;2022-11-21T08:48:33;94233.25;;;6.97;84.25
43711;BME280;29309;42.682;23.372;2022-11-21T08:50:59;94234.84;;;7.02;84.86
43711;BME280;29309;42.682;23.372;2022-11-21T08:53:25;94234.94;;;7.04;84.27
43711;BME280;29309;42.682;23.372;2022-11-21T08:55:50;94235.22;;;7.10;84.59
43711;BME280;29309;42.682;23.372;2022-11-21T08:58:17;94238.97;;;7.17;84.29
43711;BME280;29309;42.682;23.372;2022-11-21T09:00:43;94247.44;;;7.21;84.40
43711;BME280;29309;42.682;23.372;2022-11-21T09:03:08;94245.78;;;7.29;84.61
43711;BME280;29309;42.682;23.372;2022-11-21T09:05:34;94246.78;;;7.36;83.18
43711;BME280;29309;42.682;23.372;2022-11-21T09:07:59;94244.47;;;7.30;82.23
43711;BME280;29309;42.682;23.372;2022-11-21T09:10:25;94240.34;;;7.31;82.58
43711;BME280;29309;42.682;23.372;2022-11-21T09:12:51;94245.44;;;7.37;82.82
43711;BME280;29309;42.682;23.372;2022-11-21T09:15:17;94244.91;;;7.40;82.31
43711;BME280;29309;42.682;23.372;2022-11-21T09:18:01;94246.78;;;7.36;81.56
43711;BME280;29309;42.682;23.372;2022-11-21T09:20:32;94238.94;;;7.30;82.47
43711;BME280;29309;42.682;23.372;2022-11-21T09:23:06;94234.56;;;7.25;82.74
43711;BME280;29309;42.682;23.372;2022-11-21T09:25:32;94234.75;;;7.29;83.48
43711;BME280;29309;42.682;23.372;2022-11-21T09:27:59;94232.06;;;7.31;83.25
43711;BME280;29309;42.682;23.372;2022-11-21T09:30:25;94222.91;;;7.27;83.31
43711;BME280;29309;42.682;23.372;2022-11-21T09:32:50;94232.00;;;7.29;83.50
43711;BME280;29309;42.682;23.372;2022-11-21T09:35:17;94229.94;;;7.30;83.65
43711;BME280;29309;42.682;23.372;2022-11-21T09:37:42;94222.28;;;7.28;84.37
43711;BME280;29309;42.682;23.372;2022-11-21T09:40:13;94228.69;;;7.33;85.45
43711;BME280;29309;42.682;23.372;2022-11-21T09:47:57;94226.94;;;7.39;86.57
43711;BME280;29309;42.682;23.372;2022-11-21T09:50:30;94218.72;;;7.41;86.85
43711;BME280;29309;42.682;23.372;2022-11-21T09:53:10;94213.69;;;7.52;87.13
43711;BME280;29309;42.682;23.372;2022-11-21T09:55:44;94224.44;;;7.61;86.57
43711;BME280;29309;42.682;23.372;2022-11-21T09:58:20;94227.59;;;7.69;86.59
43711;BME280;29309;42.682;23.372;2022-11-21T10:00:50;94244.41;;;7.75;85.72
43711;BME280;29309;42.682;23.372;2022-11-21T10:03:17;94249.34;;;7.77;85.25
43711;BME280;29309;42.682;23.372;2022-11-21T10:05:48;94254.16;;;7.76;84.08
43711;BME280;29309;42.682;23.372;2022-11-21T10:08:33;94265.47;;;7.67;82.84
43711;BME280;29309;42.682;23.372;2022-11-21T10:11:16;94279.09;;;7.63;83.42
43711;BME280;29309;42.682;23.372;2022-11-21T10:14:00;94280.16;;;7.56;83.19
43711;BME280;29309;42.682;23.372;2022-11-21T10:16:48;94281.00;;;7.45;83.63
43711;BME280;29309;42.682;23.372;2022-11-21T10:27:56;94281.53;;;7.12;85.58
43711;BME280;29309;42.682;23.372;2022-11-21T10:30:25;94282.25;;;7.12;85.70
43711;BME280;29309;42.682;23.372;2022-11-21T10:32:59;94284.91;;;7.10;86.05
43711;BME280;29309;42.682;23.372;2022-11-21T10:35:42;94282.25;;;7.12;87.05
43711;BME280;29309;42.682;23.372;2022-11-21T10:38:23;94286.63;;;7.17;86.22
43711;BME280;29309;42.682;23.372;2022-11-21T10:46:29;94276.09;;;7.14;83.93
43711;BME280;29309;42.682;23.372;2022-11-21T10:49:00;94275.50;;;7.15;84.03
43711;BME280;29309;42.682;23.372;2022-11-21T10:54:09;94276.00;;;7.12;84.25
43711;BME280;29309;42.682;23.372;2022-11-21T10:56:57;94273.97;;;7.12;84.49
43711;BME280;29309;42.682;23.372;2022-11-21T10:59:26;94267.81;;;7.14;84.54
43711;BME280;29309;42.682;23.372;2022-11-21T11:02:19;94274.66;;;7.13;84.95
43711;BME280;29309;42.682;23.372;2022-11-21T11:04:41;94277.78;;;7.05;84.42
43711;BME280;29309;42.682;23.372;2022-11-21T11:07:27;94282.56;;;7.05;84.34
43711;BME280;29309;42.682;23.372;2022-11-21T11:10:13;94290.84;;;7.05;84.36
43711;BME280;29309;42.682;23.372;2022-11-21T11:12:39;94287.47;;;7.06;85.07
43711;BME280;29309;42.682;23.372;2022-11-21T11:15:25;94285.34;;;7.05;85.73
43711;BME280;29309;42.682;23.372;2022-11-21T11:17:54;94279.28;;;7.08;85.82
43711;BME280;29309;42.682;23.372;2022-11-21T11:22:54;94276.72;;;7.12;86.28
43711;BME280;29309;42.682;23.372;2022-11-21T11:25:20;94279.66;;;7.16;86.16
43711;BME280;29309;42.682;23.372;2022-11-21T11:27:46;94278.34;;;7.17;85.63
43711;BME280;29309;42.682;23.372;2022-11-21T11:30:16;94279.44;;;7.26;86.02
43711;BME280;29309;42.682;23.372;2022-11-21T11:32:42;94270.72;;;7.31;86.04
43711;BME280;29309;42.682;23.372;2022-11-21T11:37:54;94273.44;;;7.45;85.28
43711;BME280;29309;42.682;23.372;2022-11-21T11:40:30;94271.13;;;7.55;84.63
43711;BME280;29309;42.682;23.372;2022-11-21T11:50:20;94264.28;;;8.03;80.24
43711;BME280;29309;42.682;23.372;2022-11-21T11:55:21;94266.44;;;8.20;77.82
43711;BME280;29309;42.682;23.372;2022-11-21T11:57:49;94270.69;;;8.55;77.02
43711;BME280;29309;42.682;23.372;2022-11-21T12:00:22;94269.41;;;8.73;74.55
43711;BME280;29309;42.682;23.372;2022-11-21T12:03:18;94274.28;;;9.08;73.19
43711;BME280;29309;42.682;23.372;2022-11-21T12:05:55;94274.69;;;9.54;71.63
43711;BME280;29309;42.682;23.372;2022-11-21T12:14:46;94275.88;;;10.82;67.21
43711;BME280;29309;42.682;23.372;2022-11-21T12:20:14;94288.19;;;10.56;63.09
43711;BME280;29309;42.682;23.372;2022-11-21T12:22:43;94282.69;;;10.38;64.06
43711;BME280;29309;42.682;23.372;2022-11-21T12:25:12;94289.81;;;10.06;64.17
43711;BME280;29309;42.682;23.372;2022-11-21T12:27:40;94290.91;;;9.79;65.33
43711;BME280;29309;42.682;23.372;2022-11-21T12:30:59;94290.59;;;9.53;66.59
43711;BME280;29309;42.682;23.372;2022-11-21T12:33:22;94293.03;;;9.27;68.25
43711;BME280;29309;42.682;23.372;2022-11-21T12:41:48;94302.06;;;8.77;70.04
43711;BME280;29309;42.682;23.372;2022-11-21T12:48:00;94303.75;;;8.35;69.75
43711;BME280;29309;42.682;23.372;2022-11-21T12:57:14;94295.25;;;7.84;76.77
43711;BME280;29309;42.682;23.372;2022-11-21T13:02:56;94306.72;;;7.63;76.32
43711;BME280;29309;42.682;23.372;2022-11-21T13:05:30;94312.56;;;7.55;75.42
43711;BME280;29309;42.682;23.372;2022-11-21T13:08:01;94306.66;;;7.47;74.89
43711;BME280;29309;42.682;23.372;2022-11-21T13:10:28;94305.13;;;7.44;75.11
43711;BME280;29309;42.682;23.372;2022-11-21T13:13:21;94309.94;;;7.43;75.27
43711;BME280;29309;42.682;23.372;2022-11-21T13:16:09;94319.00;;;7.30;74.96
43711;BME280;29309;42.682;23.372;2022-11-21T13:18:44;94319.00;;;7.30;74.73
43711;BME280;29309;42.682;23.372;2022-11-21T13:21:45;94318.81;;;7.26;74.84
43711;BME280;29309;42.682;23.372;2022-11-21T13:35:01;94323.34;;;7.06;74.84
43711;BME280;29309;42.682;23.372;2022-11-21T13:45:39;94318.53;;;7.07;74.74
43711;BME280;29309;42.682;23.372;2022-11-21T13:53:53;94324.84;;;7.09;74.99
43711;BME280;29309;42.682;23.372;2022-11-21T14:01:55;94327.53;;;7.07;76.00
43711;BME280;29309;42.682;23.372;2022-11-21T14:06:54;94328.56;;;7.00;75.62
43711;BME280;29309;42.682;23.372;2022-11-21T14:09:35;94328.47;;;6.98;75.46
43711;BME280;29309;42.682;23.372;2022-11-21T14:12:06;94318.47;;;6.91;75.60
43711;BME280;29309;42.682;23.372;2022-11-21T14:20:25;94311.84;;;6.82;75.73
43711;BME280;29309;42.682;23.372;2022-11-21T14:23:00;94315.41;;;6.85;75.71
43711;BME280;29309;42.682;23.372;2022-11-21T14:28:08;94333.72;;;6.78;75.91
43711;BME280;29309;42.682;23.372;2022-11-21T14:30:37;94330.75;;;6.74;75.60
43711;BME280;29309;42.682;23.372;2022-11-21T14:35:48;94342.91;;;6.69;75.56
43711;BME280;29309;42.682;23.372;2022-11-21T14:38:13;94341.50;;;6.68;75.43
43711;BME280;29309;42.682;23.372;2022-11-21T14:40:39;94345.47;;;6.65;75.22
43711;BME280;29309;42.682;23.372;2022-11-21T14:43:29;94330.25;;;6.64;75.48
43711;BME280;29309;42.682;23.372;2022-11-21T14:45:55;94330.13;;;6.62;75.35
43711;BME280;29309;42.682;23.372;2022-11-21T14:48:29;94332.28;;;6.64;75.79
43711;BME280;29309;42.682;23.372;2022-11-21T14:50:59;94337.72;;;6.62;74.42
43711;BME280;29309;42.682;23.372;2022-11-21T14:53:25;94344.56;;;6.61;74.45
43711;BME280;29309;42.682;23.372;2022-11-21T14:55:51;94354.25;;;6.62;74.34
43711;BME280;29309;42.682;23.372;2022-11-21T14:58:18;94341.69;;;6.59;74.33
43711;BME280;29309;42.682;23.372;2022-11-21T15:01:02;94351.19;;;6.56;73.94